Andahuaylas Airport

Airport
ICAO code: 
SPHY
IATA Code: 
ANS
Summary
ICAO Region: 
CARSAM
Territory: 
Location: 
Huinchos, Apurimac
Serving: 
Andahuaylas
Elevation: 
11300 ft
Coordinates: 
Aerial View: 
13° 42' 23.069" S, 73° 21' 1.361" W
Metar
Observation
SPHY 081900Z 03009KT 9999 FEW012 SCT070 14/07 Q1032 RMK BIRD HAZARD RWY03/21 PP000
Station
Andahuayla
Date/Time
2021-12-08 19:00:00
Wind direction
30°
Wind speed
09 kts
Lowest cloud amount
few clouds
Temperature
14°C
Dew point
7°C
Humidity
62%
QNH
1032 hPa
Weather condition
n/a

A high-elevation airport serving Andahuaylas, Peru.

Climatology

Cold Semi-arid climate (Köppen climate classification BSk).

Runways

Designator Length Width Surface Rops
3/21 2500 30 ASP No/No
Airport map: 
Aerial View: 

SKYbrary Partners:

Safety knowledge contributed by: